Time;durP1;ratioP1;P1;durP2;ratioP2;P2;SDS_P1;SDS_P2;PMS_P1;PMS_P2;Temp;Humidity;BMP_temperature;BMP_pressure;BME280_temperature;BME280_humidity;BME280_pressure;Samples;Min_cycle;Max_cycle;Signal;HPM_P1;HPM_P2
2021/04/03 00:02:21;;;;;;;7.75;4.60;;;7.80;84.80;;;;;;5072202;28;20415;-70
2021/04/03 00:04:48;;;;;;;7.75;4.30;;;7.60;86.20;;;;;;5072311;28;20289;-67
2021/04/03 00:07:14;;;;;;;6.47;4.40;;;7.60;86.50;;;;;;5072036;28;20588;-66
2021/04/03 00:09:40;;;;;;;9.00;5.30;;;7.70;86.70;;;;;;5072084;28;20293;-72
2021/04/03 00:12:08;;;;;;;6.00;3.70;;;7.70;86.60;;;;;;5072082;28;20259;-71
2021/04/03 00:14:35;;;;;;;7.43;4.40;;;7.80;86.30;;;;;;5071919;28;20293;-69
2021/04/03 00:17:02;;;;;;;7.30;4.47;;;7.80;86.10;;;;;;5071960;28;20313;-68
2021/04/03 00:19:29;;;;;;;8.15;3.95;;;7.70;85.70;;;;;;5071858;28;20258;-70
2021/04/03 00:21:55;;;;;;;6.88;4.75;;;7.60;86.00;;;;;;5072099;28;20283;-69
2021/04/03 00:24:21;;;;;;;8.48;4.25;;;7.80;86.00;;;;;;5071888;28;20207;-70
2021/04/03 00:26:48;;;;;;;8.20;4.88;;;7.70;84.50;;;;;;5071911;28;20661;-70
2021/04/03 00:29:14;;;;;;;8.43;4.45;;;7.70;84.80;;;;;;5071959;28;20209;-68
2021/04/03 00:31:41;;;;;;;10.55;4.05;;;7.70;85.00;;;;;;5072143;28;20572;-70
2021/04/03 00:34:07;;;;;;;9.45;5.32;;;7.90;84.70;;;;;;5071990;28;20210;-71
2021/04/03 00:36:34;;;;;;;9.30;4.90;;;7.80;83.90;;;;;;5071665;28;20237;-70
2021/04/03 00:39:00;;;;;;;7.85;4.72;;;7.40;84.70;;;;;;5072155;28;20550;-70
2021/04/03 00:41:26;;;;;;;8.30;5.05;;;7.30;86.00;;;;;;5071718;28;20261;-70
2021/04/03 00:43:53;;;;;;;9.55;5.15;;;7.30;86.60;;;;;;5071903;28;20219;-68
2021/04/03 00:46:19;;;;;;;9.10;4.53;;;7.40;86.30;;;;;;5071711;28;20226;-69
2021/04/03 00:48:46;;;;;;;7.20;4.20;;;7.40;85.40;;;;;;5071721;28;20679;-70
2021/04/03 00:51:13;;;;;;;8.18;4.80;;;7.30;85.00;;;;;;5071687;28;20573;-69
2021/04/03 00:53:39;;;;;;;8.25;4.30;;;7.30;85.80;;;;;;5071891;28;20207;-69
2021/04/03 00:56:07;;;;;;;9.50;4.40;;;7.30;85.40;;;;;;5071660;28;20313;-70
2021/04/03 00:58:33;;;;;;;7.90;4.30;;;7.30;84.50;;;;;;5071566;28;20719;-70
2021/04/03 01:01:01;;;;;;;7.97;4.80;;;7.30;84.30;;;;;;5075027;28;20231;-70
2021/04/03 01:03:29;;;;;;;7.93;4.60;;;7.20;84.50;;;;;;5075141;28;20205;-69
2021/04/03 01:05:56;;;;;;;8.50;5.28;;;6.90;84.30;;;;;;5075070;28;20250;-71
2021/04/03 01:08:23;;;;;;;6.68;4.63;;;6.80;85.10;;;;;;5075329;28;20236;-71
2021/04/03 01:10:53;;;;;;;6.40;4.20;;;6.70;85.50;;;;;;5075308;28;20232;-68
2021/04/03 01:13:34;;;;;;;8.02;4.22;;;6.70;86.00;;;;;;5075248;28;20610;-70
2021/04/03 01:16:07;;;;;;;6.63;4.60;;;6.70;85.10;;;;;;5074962;28;20269;-70
2021/04/03 01:18:46;;;;;;;7.35;4.30;;;6.80;84.70;;;;;;5075169;28;20211;-70
2021/04/03 01:21:18;;;;;;;13.50;5.03;;;6.90;84.80;;;;;;5075247;28;20225;-70
2021/04/03 01:24:23;;;;;;;9.65;4.45;;;6.90;84.00;;;;;;5074892;28;20207;-70
2021/04/03 01:27:16;;;;;;;7.90;4.70;;;7.00;84.70;;;;;;5074506;28;20320;-68
2021/04/03 01:30:03;;;;;;;9.88;3.90;;;7.10;84.00;;;;;;5074818;28;20195;-68
2021/04/03 01:32:36;;;;;;;7.70;4.40;;;7.20;83.00;;;;;;5074701;28;20610;-69
2021/04/03 01:35:05;;;;;;;7.32;4.32;;;7.20;81.90;;;;;;5074576;28;20717;-70
2021/04/03 01:37:34;;;;;;;8.77;5.13;;;7.20;81.60;;;;;;5075153;28;20874;-70
2021/04/03 01:40:01;;;;;;;9.57;4.25;;;7.30;81.90;;;;;;5074730;28;20699;-70
2021/04/03 01:42:34;;;;;;;10.00;4.80;;;7.20;82.00;;;;;;5074812;28;20214;-69
2021/04/03 01:45:04;;;;;;;8.45;4.30;;;7.10;82.80;;;;;;5074445;28;20369;-71
2021/04/03 01:47:33;;;;;;;8.93;3.97;;;7.00;82.60;;;;;;5074293;28;20214;-69
2021/04/03 01:50:01;;;;;;;7.05;3.97;;;7.10;82.60;;;;;;5074720;28;20206;-71
2021/04/03 01:52:30;;;;;;;5.70;4.40;;;7.10;83.30;;;;;;5074690;28;20294;-70
2021/04/03 01:54:59;;;;;;;6.80;3.88;;;7.00;82.10;;;;;;5074557;28;20210;-70
2021/04/03 01:57:30;;;;;;;6.65;3.72;;;6.80;82.30;;;;;;5074301;28;20207;-71
2021/04/03 01:59:58;;;;;;;7.90;4.00;;;6.80;83.20;;;;;;5074176;28;20264;-71
2021/04/03 02:02:26;;;;;;;6.10;4.05;;;6.70;83.50;;;;;;5074374;28;20206;-72
2021/04/03 02:04:56;;;;;;;8.32;4.40;;;6.80;83.40;;;;;;5074126;28;20211;-70
2021/04/03 02:07:25;;;;;;;9.07;4.10;;;6.70;83.10;;;;;;5074043;28;20630;-69
2021/04/03 02:09:53;;;;;;;7.60;3.83;;;6.70;83.80;;;;;;5073754;28;20665;-70
2021/04/03 02:12:20;;;;;;;11.65;4.20;;;6.80;83.50;;;;;;5074037;28;20265;-72
2021/04/03 02:14:50;;;;;;;9.45;4.60;;;6.70;83.60;;;;;;5073931;28;20661;-72
2021/04/03 02:17:18;;;;;;;10.93;4.97;;;6.70;84.00;;;;;;5073713;28;20257;-72
2021/04/03 02:19:45;;;;;;;7.50;4.00;;;6.70;84.60;;;;;;5073628;28;20225;-72
2021/04/03 02:22:14;;;;;;;7.82;4.15;;;6.80;83.70;;;;;;5073784;28;20741;-71
2021/04/03 02:24:43;;;;;;;7.00;4.03;;;6.80;83.70;;;;;;5074778;28;20293;-68
2021/04/03 02:27:09;;;;;;;6.82;4.55;;;7.00;83.80;;;;;;5073828;28;20731;-68
2021/04/03 02:29:35;;;;;;;12.10;3.83;;;7.00;83.90;;;;;;5074080;28;20294;-70
2021/04/03 02:32:02;;;;;;;11.82;4.75;;;7.10;83.50;;;;;;5073504;28;20207;-69
2021/04/03 02:34:28;;;;;;;5.97;3.67;;;7.10;84.10;;;;;;5073497;28;20202;-71
2021/04/03 02:36:55;;;;;;;8.88;4.65;;;7.20;83.90;;;;;;5073384;28;20254;-70
2021/04/03 02:39:22;;;;;;;7.20;4.45;;;7.30;83.80;;;;;;5078329;28;20234;-69
2021/04/03 02:41:59;;;;;;;8.10;4.60;;;7.30;83.30;;;;;;5093793;28;20206;-69
2021/04/03 02:44:30;;;;;;;5.75;3.53;;;7.20;84.00;;;;;;5093364;28;20572;-69
2021/04/03 02:47:02;;;;;;;8.85;4.97;;;7.20;84.10;;;;;;5093552;28;20232;-69
2021/04/03 02:49:35;;;;;;;7.75;3.40;;;7.20;83.80;;;;;;5093428;28;20201;-70
2021/04/03 02:52:06;;;;;;;6.68;3.85;;;7.30;83.60;;;;;;5093390;28;20255;-69
2021/04/03 02:54:34;;;;;;;12.90;3.97;;;7.30;82.90;;;;;;5093547;28;20645;-69
2021/04/03 02:57:02;;;;;;;5.63;3.63;;;7.40;82.60;;;;;;5093232;28;20279;-68
2021/04/03 02:59:34;;;;;;;6.25;4.00;;;7.50;82.10;;;;;;5093187;28;20572;-71
2021/04/03 03:02:01;;;;;;;4.63;3.72;;;7.30;81.50;;;;;;5093166;28;20205;-69
2021/04/03 03:04:29;;;;;;;5.25;3.28;;;7.10;81.70;;;;;;5093096;28;20198;-69
2021/04/03 03:06:58;;;;;;;5.60;3.40;;;6.70;82.20;;;;;;5092665;28;20271;-70
2021/04/03 03:09:26;;;;;;;8.07;4.00;;;6.70;83.20;;;;;;5092890;28;20206;-69
2021/04/03 03:11:56;;;;;;;8.60;3.60;;;6.70;83.60;;;;;;5092758;28;20202;-69
2021/04/03 03:14:24;;;;;;;4.85;3.15;;;6.70;83.60;;;;;;5092884;28;20628;-68
2021/04/03 03:16:53;;;;;;;6.32;3.63;;;6.90;82.50;;;;;;5092865;28;20224;-70
2021/04/03 03:19:21;;;;;;;5.88;3.28;;;6.80;82.10;;;;;;5092617;28;20206;-69
2021/04/03 03:21:48;;;;;;;10.27;3.47;;;6.70;82.70;;;;;;5092314;28;20620;-68
2021/04/03 03:24:16;;;;;;;4.47;3.10;;;6.70;83.00;;;;;;5092740;28;20244;-69
2021/04/03 03:26:43;;;;;;;5.10;3.22;;;6.80;83.70;;;;;;5092618;28;20645;-70
2021/04/03 03:29:11;;;;;;;5.13;3.40;;;6.80;82.40;;;;;;5094434;28;20652;-65
2021/04/03 03:31:38;;;;;;;5.13;3.10;;;6.90;82.20;;;;;;5094430;28;20204;-65
2021/04/03 03:34:05;;;;;;;6.85;2.90;;;6.80;82.10;;;;;;5093858;28;20203;-65
2021/04/03 03:36:35;;;;;;;4.80;2.80;;;6.80;82.30;;;;;;5093897;28;20317;-65
2021/04/03 03:39:03;;;;;;;4.15;3.15;;;6.90;83.00;;;;;;5094226;28;20202;-65
2021/04/03 03:41:32;;;;;;;5.50;3.35;;;6.90;83.20;;;;;;5094222;28;20270;-64
2021/04/03 03:44:00;;;;;;;3.92;2.80;;;7.00;82.50;;;;;;5094048;28;20301;-65
2021/04/03 03:46:27;;;;;;;4.85;2.85;;;7.00;81.50;;;;;;5093483;28;20310;-65
2021/04/03 03:48:53;;;;;;;4.97;3.13;;;7.10;81.80;;;;;;5094005;28;20556;-64
2021/04/03 03:51:19;;;;;;;4.55;3.20;;;7.20;81.50;;;;;;5093865;28;20290;-65
2021/04/03 03:53:46;;;;;;;4.93;3.38;;;7.30;81.00;;;;;;5093811;28;20206;-65
2021/04/03 03:56:13;;;;;;;4.22;3.28;;;7.30;80.70;;;;;;5093365;28;20711;-64
2021/04/03 03:58:40;;;;;;;5.68;3.20;;;7.30;80.80;;;;;;5094188;28;20530;-64
2021/04/03 04:01:07;;;;;;;6.80;3.10;;;7.40;80.50;;;;;;5093706;28;20222;-64
2021/04/03 04:03:33;;;;;;;4.90;3.08;;;7.40;80.00;;;;;;5093662;28;20315;-64
2021/04/03 04:05:59;;;;;;;4.85;3.30;;;7.30;79.70;;;;;;5093476;28;20224;-65
2021/04/03 04:08:26;;;;;;;5.65;3.20;;;7.30;79.80;;;;;;5093547;28;20205;-64
2021/04/03 04:10:53;;;;;;;4.38;3.33;;;7.00;79.70;;;;;;5094026;28;20240;-65
2021/04/03 04:13:19;;;;;;;5.68;3.30;;;7.10;81.20;;;;;;5093965;28;20694;-64
2021/04/03 04:15:46;;;;;;;4.82;3.10;;;7.10;81.10;;;;;;5093384;28;20695;-64
2021/04/03 04:18:13;;;;;;;5.68;3.10;;;7.20;81.50;;;;;;5093557;28;20254;-65
2021/04/03 04:20:39;;;;;;;5.55;3.20;;;7.20;81.20;;;;;;5093718;28;20617;-64
2021/04/03 04:23:05;;;;;;;5.85;3.60;;;7.10;81.30;;;;;;5093878;28;20610;-65
2021/04/03 04:25:32;;;;;;;5.05;2.67;;;7.00;81.70;;;;;;5093647;28;20591;-65
2021/04/03 04:27:58;;;;;;;7.00;2.70;;;7.00;81.30;;;;;;5093437;28;20214;-65
2021/04/03 04:30:24;;;;;;;6.22;3.33;;;6.80;82.10;;;;;;5093325;28;20704;-64
2021/04/03 04:32:51;;;;;;;6.20;3.83;;;6.80;83.40;;;;;;5093599;28;20198;-64
2021/04/03 04:35:18;;;;;;;5.85;3.00;;;6.80;83.00;;;;;;5095513;28;20232;-64
2021/04/03 04:37:44;;;;;;;5.10;3.67;;;6.90;83.30;;;;;;5096970;28;20656;-64
2021/04/03 04:40:13;;;;;;;5.60;3.53;;;6.90;82.70;;;;;;5097616;28;20359;-65
2021/04/03 04:42:40;;;;;;;4.50;3.45;;;6.90;83.20;;;;;;5097256;28;20213;-64
2021/04/03 04:45:08;;;;;;;5.32;2.97;;;6.70;83.50;;;;;;5097029;28;20217;-65
2021/04/03 04:47:34;;;;;;;6.15;3.50;;;6.60;84.30;;;;;;5096911;28;20202;-64
2021/04/03 04:50:00;;;;;;;6.93;3.40;;;6.60;85.20;;;;;;5097419;28;20202;-64
2021/04/03 04:52:28;;;;;;;7.88;3.00;;;6.60;85.60;;;;;;5097468;28;20332;-64
2021/04/03 04:54:55;;;;;;;8.85;3.63;;;6.70;85.80;;;;;;5097326;28;20296;-64
2021/04/03 04:57:21;;;;;;;4.95;3.10;;;6.90;86.10;;;;;;5096885;28;20260;-65
2021/04/03 04:59:47;;;;;;;5.35;2.80;;;7.00;84.60;;;;;;5097013;28;20301;-64
2021/04/03 05:02:14;;;;;;;5.05;3.22;;;7.10;83.90;;;;;;5097118;28;20205;-64
2021/04/03 05:04:40;;;;;;;6.07;3.28;;;7.20;83.10;;;;;;5097037;28;20206;-65
2021/04/03 05:07:06;;;;;;;6.88;2.65;;;7.30;83.30;;;;;;5096823;28;20347;-64
2021/04/03 05:09:34;;;;;;;3.50;3.20;;;7.30;83.10;;;;;;5097185;28;20209;-65
2021/04/03 05:12:01;;;;;;;4.78;2.97;;;7.20;82.60;;;;;;5096778;28;20285;-64
2021/04/03 05:14:28;;;;;;;7.15;3.50;;;6.90;83.70;;;;;;5096569;28;20667;-64
2021/04/03 05:16:54;;;;;;;5.97;3.78;;;6.90;84.20;;;;;;5096499;28;20222;-64
2021/04/03 05:19:20;;;;;;;5.25;3.05;;;6.90;84.70;;;;;;5096852;28;20292;-64
2021/04/03 05:21:47;;;;;;;6.32;3.42;;;6.90;85.20;;;;;;5096777;28;20316;-65
2021/04/03 05:24:13;;;;;;;5.60;3.40;;;7.00;84.60;;;;;;5096966;28;20289;-64
2021/04/03 05:26:40;;;;;;;6.03;3.60;;;7.00;84.60;;;;;;5096254;28;20232;-64
2021/04/03 05:29:07;;;;;;;6.82;2.92;;;6.90;84.60;;;;;;5096255;28;20216;-64
2021/04/03 05:31:33;;;;;;;4.45;3.35;;;6.70;85.40;;;;;;5096598;28;20566;-64
2021/04/03 05:33:59;;;;;;;6.43;2.88;;;6.80;85.50;;;;;;5096613;28;20205;-64
2021/04/03 05:36:26;;;;;;;9.23;3.50;;;6.90;85.60;;;;;;5095888;28;20225;-64
2021/04/03 05:38:52;;;;;;;6.68;3.30;;;7.00;85.60;;;;;;5095881;28;20210;-64
2021/04/03 05:41:18;;;;;;;5.22;3.10;;;7.00;84.10;;;;;;5096135;28;20312;-64
2021/04/03 05:43:47;;;;;;;6.97;3.25;;;7.10;84.20;;;;;;5096051;28;20247;-64
2021/04/03 05:46:14;;;;;;;4.68;3.10;;;7.10;83.90;;;;;;5095457;28;20298;-64
2021/04/03 05:48:40;;;;;;;3.70;2.63;;;7.10;84.00;;;;;;5096235;28;20198;-64
2021/04/03 05:51:07;;;;;;;4.97;3.35;;;7.10;83.90;;;;;;5096291;28;20287;-64
2021/04/03 05:53:36;;;;;;;5.68;3.50;;;7.00;83.40;;;;;;5095956;28;20858;-64
2021/04/03 05:56:02;;;;;;;6.28;3.40;;;7.00;84.50;;;;;;5096021;28;20222;-65
2021/04/03 05:58:29;;;;;;;5.25;3.08;;;7.10;84.20;;;;;;5096014;28;20289;-65
2021/04/03 06:00:56;;;;;;;5.53;3.42;;;7.30;84.80;;;;;;5095622;28;20228;-65
2021/04/03 06:03:22;;;;;;;7.85;3.50;;;7.10;84.20;;;;;;5096038;28;20202;-64
2021/04/03 06:05:49;;;;;;;5.82;3.40;;;6.80;84.80;;;;;;5095796;28;20761;-64
2021/04/03 06:08:16;;;;;;;8.63;3.60;;;6.60;85.80;;;;;;5095540;28;20254;-65
2021/04/03 06:10:42;;;;;;;4.75;3.25;;;6.70;87.10;;;;;;5096037;28;20653;-64
2021/04/03 06:13:17;;;;;;;8.25;3.30;;;6.90;87.50;;;;;;5095774;28;20237;-64
2021/04/03 06:15:44;;;;;;;6.43;3.70;;;6.80;86.40;;;;;;5095696;28;20257;-64
2021/04/03 06:18:16;;;;;;;7.68;3.63;;;6.90;87.20;;;;;;5095627;28;20293;-64
2021/04/03 06:20:43;;;;;;;8.75;4.07;;;6.60;86.50;;;;;;5095379;28;20225;-64
2021/04/03 06:23:11;;;;;;;4.35;2.55;;;6.40;88.00;;;;;;5095460;28;20544;-64
2021/04/03 06:25:53;;;;;;;4.32;3.20;;;6.50;88.60;;;;;;5095258;28;20226;-64
2021/04/03 06:28:27;;;;;;;6.15;3.15;;;6.80;88.40;;;;;;5095142;28;20213;-64
2021/04/03 06:30:57;;;;;;;6.93;2.88;;;6.90;87.20;;;;;;5095619;28;20198;-64
2021/04/03 06:33:25;;;;;;;5.50;3.25;;;7.10;87.40;;;;;;5095205;28;20618;-65
2021/04/03 06:36:07;;;;;;;4.43;2.72;;;7.30;86.90;;;;;;5094951;28;20222;-64
2021/04/03 06:38:34;;;;;;;5.20;3.08;;;7.30;86.10;;;;;;5093454;28;20215;-64
2021/04/03 06:41:20;;;;;;;5.47;3.30;;;7.20;85.40;;;;;;5095305;28;20222;-64
2021/04/03 06:44:02;;;;;;;4.45;2.90;;;7.10;86.10;;;;;;5094930;28;20202;-64
2021/04/03 06:46:29;;;;;;;5.80;3.85;;;6.90;86.80;;;;;;5094661;28;20267;-64
2021/04/03 06:48:58;;;;;;;5.63;3.00;;;6.90;88.40;;;;;;5095042;28;20675;-64
2021/04/03 06:51:26;;;;;;;6.00;3.22;;;6.60;87.70;;;;;;5094821;28;20285;-64
2021/04/03 06:53:54;;;;;;;6.07;3.30;;;6.70;88.90;;;;;;5094692;28;20228;-64
2021/04/03 06:56:22;;;;;;;5.28;3.10;;;6.60;88.70;;;;;;5094236;28;20313;-64
2021/04/03 06:58:52;;;;;;;4.50;3.03;;;6.70;89.70;;;;;;5094434;28;20205;-64
2021/04/03 07:01:21;;;;;;;5.53;3.40;;;6.80;89.30;;;;;;5094255;28;20301;-64
2021/04/03 07:03:53;;;;;;;4.95;3.35;;;6.90;88.30;;;;;;5094941;28;20552;-64
2021/04/03 07:06:22;;;;;;;5.43;3.17;;;7.10;89.00;;;;;;5094292;28;20230;-65
2021/04/03 07:08:51;;;;;;;3.78;3.30;;;7.40;88.20;;;;;;5094570;28;20212;-64
2021/04/03 07:11:17;;;;;;;4.70;2.47;;;7.60;86.50;;;;;;5094602;28;20304;-65
2021/04/03 07:13:45;;;;;;;6.32;2.95;;;7.80;85.70;;;;;;5094687;28;20201;-65
2021/04/03 07:16:11;;;;;;;5.57;2.85;;;8.00;84.90;;;;;;5094133;28;20226;-65
2021/04/03 07:18:39;;;;;;;3.63;2.80;;;8.10;84.50;;;;;;5094740;28;20203;-64
2021/04/03 07:21:09;;;;;;;4.43;2.95;;;8.00;84.00;;;;;;5093976;28;20775;-65
2021/04/03 07:23:38;;;;;;;4.45;2.78;;;8.00;83.80;;;;;;5094196;28;20777;-64
2021/04/03 07:26:05;;;;;;;4.63;2.95;;;8.00;83.60;;;;;;5094180;28;20309;-65
2021/04/03 07:28:39;;;;;;;9.00;3.65;;;7.90;83.20;;;;;;5094478;28;20205;-65
2021/04/03 07:31:06;;;;;;;6.65;2.83;;;7.80;83.80;;;;;;5094487;28;20201;-65
2021/04/03 07:33:33;;;;;;;4.50;2.70;;;7.40;84.00;;;;;;5094090;28;20198;-64
2021/04/03 07:36:01;;;;;;;4.32;2.67;;;7.50;85.40;;;;;;5093765;28;20253;-65
2021/04/03 07:38:29;;;;;;;4.70;3.00;;;7.60;84.90;;;;;;5094178;28;20240;-65
2021/04/03 07:40:58;;;;;;;5.80;3.03;;;7.80;83.90;;;;;;5094213;28;20222;-65
2021/04/03 07:43:36;;;;;;;4.47;2.92;;;8.10;84.10;;;;;;5094328;28;20209;-64
2021/04/03 07:46:08;;;;;;;3.05;2.42;;;7.90;83.30;;;;;;5094029;28;20229;-65
2021/04/03 07:48:43;;;;;;;4.53;2.78;;;8.10;82.20;;;;;;5094317;28;20224;-65
2021/04/03 07:51:11;;;;;;;5.32;3.00;;;7.90;82.20;;;;;;5094106;28;20204;-64
2021/04/03 07:53:39;;;;;;;4.97;2.80;;;8.10;82.30;;;;;;5094094;28;20656;-65
2021/04/03 07:56:07;;;;;;;4.65;2.58;;;8.30;81.80;;;;;;5093719;28;20316;-65
2021/04/03 07:58:34;;;;;;;8.63;3.33;;;8.50;80.90;;;;;;5093791;28;20209;-64
2021/04/03 08:01:02;;;;;;;3.78;2.65;;;8.70;79.70;;;;;;5093858;28;20276;-65
2021/04/03 08:03:31;;;;;;;4.53;3.08;;;8.70;79.30;;;;;;5093469;28;20207;-65
2021/04/03 08:06:02;;;;;;;3.80;2.60;;;9.00;79.00;;;;;;5093571;28;20309;-65
2021/04/03 08:08:31;;;;;;;2.95;2.22;;;8.80;76.80;;;;;;5095277;28;20212;-64
2021/04/03 08:11:13;;;;;;;2.17;1.70;;;8.40;77.90;;;;;;5097789;28;20293;-64
2021/04/03 08:13:42;;;;;;;6.10;2.15;;;8.40;78.60;;;;;;5097831;28;20288;-65
2021/04/03 08:16:10;;;;;;;3.70;2.10;;;8.40;78.10;;;;;;5097787;28;20226;-65
2021/04/03 08:18:38;;;;;;;5.95;2.17;;;8.30;77.80;;;;;;5098073;28;20659;-65
2021/04/03 08:21:05;;;;;;;4.53;1.95;;;8.10;78.80;;;;;;5098125;28;20224;-64
2021/04/03 08:23:33;;;;;;;3.55;2.50;;;7.90;79.40;;;;;;5097814;28;20206;-66
2021/04/03 08:26:00;;;;;;;2.38;2.10;;;7.70;81.20;;;;;;5097719;28;20228;-65
2021/04/03 08:28:27;;;;;;;3.22;2.20;;;7.50;82.00;;;;;;5097709;28;20296;-65
2021/04/03 08:30:54;;;;;;;2.65;1.90;;;7.70;82.60;;;;;;5097873;28;20289;-65
2021/04/03 08:33:20;;;;;;;2.40;2.00;;;7.50;81.90;;;;;;5098269;28;20209;-65
2021/04/03 08:35:48;;;;;;;2.10;1.60;;;7.60;81.70;;;;;;5098000;28;20222;-64
2021/04/03 08:38:20;;;;;;;3.17;1.95;;;7.50;81.70;;;;;;5097236;28;20724;-65
2021/04/03 08:40:49;;;;;;;2.55;1.80;;;7.50;80.10;;;;;;5097573;28;20228;-65
2021/04/03 08:43:26;;;;;;;2.03;1.80;;;7.50;81.30;;;;;;5097764;28;20244;-65
2021/04/03 08:46:02;;;;;;;5.45;2.50;;;7.90;81.70;;;;;;5097537;28;20234;-65
2021/04/03 08:48:32;;;;;;;2.30;1.73;;;8.10;79.70;;;;;;5097304;28;20243;-65
2021/04/03 08:50:59;;;;;;;2.72;2.05;;;7.70;78.60;;;;;;5097392;28;20513;-65
2021/04/03 08:53:35;;;;;;;2.20;1.77;;;7.60;79.90;;;;;;5097294;28;20212;-65
2021/04/03 08:56:01;;;;;;;5.80;2.08;;;7.80;80.30;;;;;;5097218;28;20696;-65
2021/04/03 08:58:28;;;;;;;2.80;1.42;;;7.70;79.60;;;;;;5097521;28;20206;-65
2021/04/03 09:00:55;;;;;;;2.28;1.55;;;8.00;80.40;;;;;;5097421;28;20309;-65
2021/04/03 09:03:21;;;;;;;2.88;2.08;;;7.90;78.70;;;;;;5097095;28;20213;-65
2021/04/03 09:05:48;;;;;;;4.03;1.70;;;8.50;77.50;;;;;;5096795;28;20226;-65
2021/04/03 09:08:24;;;;;;;3.60;1.95;;;8.90;76.40;;;;;;5096693;28;20209;-65
2021/04/03 09:10:55;;;;;;;5.00;1.70;;;9.20;75.20;;;;;;5098222;28;20591;-66
2021/04/03 09:13:21;;;;;;;4.32;2.00;;;9.50;75.20;;;;;;5097070;28;20298;-65
2021/04/03 09:15:48;;;;;;;5.38;2.10;;;9.70;73.20;;;;;;5096535;28;20313;-65
2021/04/03 09:18:16;;;;;;;2.88;2.17;;;10.00;70.40;;;;;;5096661;28;20213;-66
2021/04/03 09:20:47;;;;;;;2.50;1.90;;;10.20;70.40;;;;;;5095496;28;20228;-65
2021/04/03 09:23:13;;;;;;;2.50;1.90;;;10.70;69.50;;;;;;5096786;28;20259;-66
2021/04/03 09:25:40;;;;;;;2.08;1.70;;;10.50;66.90;;;;;;5096558;28;20221;-65
2021/04/03 09:28:10;;;;;;;3.65;2.20;;;10.60;68.80;;;;;;5096391;28;20537;-65
2021/04/03 09:30:38;;;;;;;3.08;2.10;;;11.00;67.70;;;;;;5096510;28;20202;-65
2021/04/03 09:33:22;;;;;;;3.38;2.17;;;11.10;66.40;;;;;;5096637;28;20292;-65
2021/04/03 09:35:49;;;;;;;2.30;2.08;;;11.10;65.90;;;;;;5096311;28;20618;-66
2021/04/03 09:38:26;;;;;;;3.15;1.80;;;11.20;63.80;;;;;;5096420;28;20206;-66
2021/04/03 09:40:53;;;;;;;3.50;2.17;;;11.90;65.10;;;;;;5096299;28;20222;-66
2021/04/03 09:43:20;;;;;;;4.20;2.42;;;12.00;62.30;;;;;;5096465;28;20206;-66
2021/04/03 09:45:49;;;;;;;3.15;2.30;;;12.00;61.30;;;;;;5096157;28;20226;-66
2021/04/03 09:48:16;;;;;;;3.08;2.72;;;12.30;60.30;;;;;;5095896;28;20202;-66
2021/04/03 09:50:44;;;;;;;3.90;2.30;;;13.60;58.50;;;;;;5096449;28;20195;-66
2021/04/03 09:53:12;;;;;;;3.60;2.65;;;15.10;56.90;;;;;;5096009;28;20212;-66
2021/04/03 09:55:39;;;;;;;3.20;1.88;;;16.40;51.40;;;;;;5095582;28;20309;-66
2021/04/03 09:58:05;;;;;;;5.40;2.40;;;18.30;50.00;;;;;;5095886;28;20202;-66
2021/04/03 10:00:32;;;;;;;2.93;2.23;;;19.40;45.50;;;;;;5095707;28;20484;-66
2021/04/03 10:02:59;;;;;;;2.33;2.13;;;20.00;42.30;;;;;;5096077;28;20443;-66
2021/04/03 10:05:26;;;;;;;4.20;2.40;;;18.70;42.90;;;;;;5096082;28;20229;-66
2021/04/03 10:07:53;;;;;;;3.65;1.92;;;17.20;43.60;;;;;;5095668;28;20202;-66
2021/04/03 10:10:19;;;;;;;2.95;2.10;;;16.70;46.30;;;;;;5095814;28;20252;-66
2021/04/03 10:12:46;;;;;;;2.25;2.05;;;17.40;46.30;;;;;;5095534;28;20665;-66
2021/04/03 10:15:12;;;;;;;3.50;2.10;;;18.90;44.70;;;;;;5095408;28;20210;-66
2021/04/03 10:17:39;;;;;;;2.70;1.83;;;19.20;43.10;;;;;;5094988;28;20528;-66
2021/04/03 10:20:07;;;;;;;3.60;2.00;;;20.10;42.70;;;;;;5095340;28;20440;-66
2021/04/03 10:22:33;;;;;;;2.92;2.28;;;18.90;40.10;;;;;;5095143;28;20479;-66
2021/04/03 10:25:00;;;;;;;2.15;1.75;;;18.70;42.60;;;;;;5095481;28;20212;-66
2021/04/03 10:27:27;;;;;;;2.97;2.10;;;19.10;41.50;;;;;;5095421;28;20202;-66
2021/04/03 10:29:53;;;;;;;4.45;2.45;;;18.50;41.00;;;;;;5095626;28;20305;-66
2021/04/03 10:32:19;;;;;;;3.42;2.20;;;17.40;43.10;;;;;;5092529;28;20211;-67
2021/04/03 10:34:46;;;;;;;4.70;1.90;;;15.40;44.90;;;;;;5082128;28;20267;-67
2021/04/03 10:37:12;;;;;;;2.45;1.70;;;15.50;46.60;;;;;;5093998;28;20319;-67
2021/04/03 10:39:38;;;;;;;3.05;2.20;;;16.00;46.70;;;;;;5093810;28;20208;-67
2021/04/03 10:42:07;;;;;;;2.42;2.00;;;16.20;45.50;;;;;;5093698;28;20229;-67
2021/04/03 10:44:34;;;;;;;1.88;1.42;;;15.80;45.40;;;;;;5093253;28;20589;-67
2021/04/03 10:47:00;;;;;;;4.68;1.95;;;15.40;46.00;;;;;;5093005;28;20356;-67
2021/04/03 10:49:28;;;;;;;3.20;1.75;;;15.00;47.30;;;;;;5093601;28;20617;-67
2021/04/03 10:51:54;;;;;;;1.90;1.40;;;15.10;47.00;;;;;;5093533;28;20199;-67
2021/04/03 10:54:22;;;;;;;2.97;1.80;;;15.90;47.20;;;;;;5093612;28;20615;-67
2021/04/03 10:56:48;;;;;;;2.90;1.85;;;16.70;46.20;;;;;;5093016;28;20257;-67
2021/04/03 10:59:15;;;;;;;1.90;1.70;;;17.60;43.80;;;;;;5093309;28;20212;-67
2021/04/03 11:01:42;;;;;;;5.53;1.95;;;17.60;43.30;;;;;;5093045;28;20232;-67
2021/04/03 11:04:09;;;;;;;2.28;1.80;;;17.50;44.00;;;;;;5093551;28;20206;-67
2021/04/03 11:06:35;;;;;;;3.28;1.90;;;17.50;43.90;;;;;;5092958;28;20309;-67
2021/04/03 11:09:02;;;;;;;1.63;1.52;;;17.70;42.40;;;;;;5093280;28;20251;-67
2021/04/03 11:11:30;;;;;;;2.00;1.55;;;17.50;42.70;;;;;;5093213;28;20229;-67
2021/04/03 11:13:56;;;;;;;2.13;1.60;;;16.50;42.80;;;;;;5093511;28;20571;-67
2021/04/03 11:16:26;;;;;;;2.78;1.70;;;16.30;45.30;;;;;;5092514;28;20622;-67
2021/04/03 11:18:53;;;;;;;2.53;1.42;;;17.50;45.50;;;;;;5093116;28;20203;-67
2021/04/03 11:21:20;;;;;;;2.37;2.17;;;19.00;42.60;;;;;;5092986;28;20699;-68
2021/04/03 11:23:46;;;;;;;2.20;1.90;;;19.70;41.20;;;;;;5093157;28;20452;-67
2021/04/03 11:26:12;;;;;;;2.72;2.00;;;19.40;39.70;;;;;;5092464;28;20468;-67
2021/04/03 11:28:39;;;;;;;2.42;1.60;;;18.30;42.10;;;;;;5092572;28;20289;-70
2021/04/03 11:31:13;;;;;;;2.58;1.65;;;18.90;41.90;;;;;;5092851;28;20844;-73
2021/04/03 11:33:40;;;;;;;2.50;1.80;;;18.50;41.10;;;;;;5093115;28;20290;-71
2021/04/03 11:36:11;;;;;;;2.15;2.05;;;16.70;41.70;;;;;;5092689;28;20233;-71
2021/04/03 11:38:37;;;;;;;3.03;1.80;;;15.40;44.70;;;;;;5092789;28;20209;-70
2021/04/03 11:41:04;;;;;;;1.85;1.70;;;14.50;45.50;;;;;;5092736;28;20309;-69
2021/04/03 11:43:30;;;;;;;4.68;2.13;;;14.20;46.30;;;;;;5092189;28;20293;-69
2021/04/03 11:45:57;;;;;;;2.40;1.80;;;13.50;46.60;;;;;;5092607;28;20731;-70
2021/04/03 11:48:23;;;;;;;4.82;2.28;;;13.30;49.20;;;;;;5092816;28;20750;-71
2021/04/03 11:50:50;;;;;;;4.90;2.28;;;12.80;49.20;;;;;;5092739;28;20285;-71
2021/04/03 11:53:17;;;;;;;5.68;2.47;;;12.70;50.10;;;;;;5092774;28;20202;-71
2021/04/03 11:55:43;;;;;;;2.40;1.90;;;12.40;49.40;;;;;;5092649;28;20218;-71
2021/04/03 11:58:10;;;;;;;2.10;1.90;;;12.70;50.30;;;;;;5092515;28;20201;-71
2021/04/03 12:00:36;;;;;;;3.45;1.60;;;12.60;50.00;;;;;;5092718;28;20205;-72
2021/04/03 12:03:03;;;;;;;5.05;2.05;;;12.90;51.10;;;;;;5092661;28;20202;-71
2021/04/03 12:05:29;;;;;;;2.30;2.05;;;12.30;49.70;;;;;;5092703;28;20317;-71
2021/04/03 12:07:56;;;;;;;5.45;2.15;;;12.10;52.30;;;;;;5092313;28;20297;-71
2021/04/03 12:10:23;;;;;;;3.35;2.35;;;12.40;51.60;;;;;;5092537;28;20209;-71
2021/04/03 12:12:49;;;;;;;3.05;2.10;;;12.40;50.90;;;;;;5092987;28;20234;-70
2021/04/03 12:15:16;;;;;;;3.30;1.95;;;12.60;51.70;;;;;;5092318;28;20201;-69
2021/04/03 12:17:43;;;;;;;2.80;1.98;;;12.60;49.70;;;;;;5092227;28;20293;-69
2021/04/03 12:20:12;;;;;;;3.20;2.17;;;12.10;48.60;;;;;;5092657;28;20568;-68
2021/04/03 12:22:38;;;;;;;2.45;1.58;;;11.80;50.00;;;;;;5092536;28;20583;-68
2021/04/03 12:25:07;;;;;;;2.10;1.90;;;11.40;51.20;;;;;;5092171;28;20208;-74
2021/04/03 12:27:33;;;;;;;3.65;2.30;;;11.70;51.20;;;;;;5092404;28;20198;-68
2021/04/03 12:30:02;;;;;;;3.13;2.15;;;12.20;52.10;;;;;;5092339;28;20205;-69
2021/04/03 12:32:28;;;;;;;3.00;2.08;;;12.00;51.30;;;;;;5092409;28;20225;-71
2021/04/03 12:34:55;;;;;;;2.55;2.10;;;11.90;51.40;;;;;;5092248;28;20289;-72
2021/04/03 12:37:21;;;;;;;3.03;1.73;;;12.00;51.50;;;;;;5091697;28;20317;-73
2021/04/03 12:39:48;;;;;;;2.97;1.85;;;11.90;50.90;;;;;;5092575;28;20277;-72
2021/04/03 12:42:15;;;;;;;3.08;1.80;;;11.70;51.80;;;;;;5092303;28;20230;-71
2021/04/03 12:44:41;;;;;;;2.47;1.50;;;11.90;51.90;;;;;;5092141;28;20266;-72
2021/04/03 12:47:13;;;;;;;3.13;1.65;;;12.10;50.30;;;;;;5091950;28;20222;-72
2021/04/03 12:49:39;;;;;;;2.83;1.80;;;12.30;49.60;;;;;;5093535;28;20664;-74
2021/04/03 12:52:10;;;;;;;1.60;1.50;;;12.50;48.70;;;;;;5093960;28;20600;-68
2021/04/03 12:54:39;;;;;;;1.55;1.45;;;12.30;47.30;;;;;;5093522;28;20202;-68
2021/04/03 12:57:12;;;;;;;2.97;1.90;;;12.50;47.50;;;;;;5096671;28;20684;-68
2021/04/03 12:59:39;;;;;;;2.15;1.90;;;12.50;47.60;;;;;;5097647;28;20296;-68